Time;durP1;ratioP1;P1;durP2;ratioP2;P2;SDS_P1;SDS_P2;PMS_P1;PMS_P2;Temp;Humidity;BMP_temperature;BMP_pressure;BME280_temperature;BME280_humidity;BME280_pressure;Samples;Min_cycle;Max_cycle;Signal;HPM_P1;HPM_P2
2024/02/23 00:02:04;;;;;;;;;2.00;0.00;;;;;22.36;42.69;99178.69;6399096;22;45427;-73
2024/02/23 00:04:30;;;;;;;;;0.00;0.00;;;;;22.24;42.03;99168.84;6398988;22;47091;-73
2024/02/23 00:06:56;;;;;;;;;0.00;0.00;;;;;22.35;42.66;99193.75;6399405;22;45784;-73
2024/02/23 00:09:21;;;;;;;;;0.00;0.00;;;;;22.06;42.63;99148.50;6398790;22;57913;-73
2024/02/23 00:11:47;;;;;;;;;0.00;0.00;;;;;22.29;42.61;99184.88;6399094;22;47573;-74
2024/02/23 00:14:13;;;;;;;;;0.00;0.00;;;;;22.29;42.53;99179.59;6399196;22;46001;-73
2024/02/23 00:16:41;;;;;;;;;0.00;0.00;;;;;22.25;42.11;99181.06;6400169;22;45300;-74
2024/02/23 00:19:09;;;;;;;;;0.33;0.00;;;;;22.32;42.10;99186.28;6401180;22;45207;-74
2024/02/23 00:21:35;;;;;;;;;0.33;0.33;;;;;22.34;42.59;99181.56;6400385;22;45303;-73
2024/02/23 00:24:00;;;;;;;;;0.00;0.00;;;;;22.33;42.21;99179.94;6400833;22;45329;-74
2024/02/23 00:26:27;;;;;;;;;0.00;0.00;;;;;22.25;42.07;99167.81;6400862;22;45300;-73
2024/02/23 00:28:53;;;;;;;;;0.00;0.00;;;;;22.33;42.55;99189.75;6400029;22;45229;-73
2024/02/23 00:31:18;;;;;;;;;0.00;0.00;;;;;22.29;42.21;99181.44;6400526;22;45500;-73
2024/02/23 00:33:43;;;;;;;;;0.00;0.00;;;;;22.33;42.02;99185.22;6400742;22;46002;-74
2024/02/23 00:36:09;;;;;;;;;0.00;0.00;;;;;22.34;41.88;99194.00;6400538;22;50305;-73
2024/02/23 00:38:34;;;;;;;;;0.67;0.00;;;;;22.28;42.29;99183.25;6400931;22;45266;-73
2024/02/23 00:40:59;;;;;;;;;0.33;0.00;;;;;22.34;42.40;99192.16;6400498;22;45134;-73
2024/02/23 00:43:25;;;;;;;;;1.00;0.00;;;;;22.31;42.05;99178.53;6400086;22;53413;-73
2024/02/23 00:45:50;;;;;;;;;0.00;0.00;;;;;22.28;41.84;99174.50;6400153;22;45199;-74
2024/02/23 00:48:15;;;;;;;;;0.00;0.00;;;;;22.33;41.95;99172.00;6400893;22;45243;-73
2024/02/23 00:50:41;;;;;;;;;0.00;0.00;;;;;22.33;42.27;99164.03;6400513;22;45516;-73
2024/02/23 00:53:06;;;;;;;;;0.00;0.00;;;;;22.24;41.83;99155.59;6371761;22;46028;-74
2024/02/23 00:55:31;;;;;;;;;0.00;0.00;;;;;22.32;41.74;99170.38;6400500;22;56111;-73
2024/02/23 00:57:57;;;;;;;;;0.00;0.00;;;;;22.24;41.83;99154.78;6400909;22;45132;-74
2024/02/23 01:00:23;;;;;;;;;1.00;0.00;;;;;22.31;42.42;99168.75;6401813;22;45393;-73
2024/02/23 01:02:48;;;;;;;;;0.00;0.00;;;;;22.28;42.30;99162.06;6401018;22;46158;-74
2024/02/23 01:05:14;;;;;;;;;0.67;0.00;;;;;22.31;42.27;99170.59;6400451;22;45134;-73
2024/02/23 01:07:39;;;;;;;;;0.00;0.00;;;;;22.30;42.29;99161.84;6400784;22;45182;-74
2024/02/23 01:10:05;;;;;;;;;0.00;0.00;;;;;22.29;42.52;99161.03;6400574;22;47755;-73
2024/02/23 01:12:30;;;;;;;;;0.00;0.00;;;;;22.29;42.42;99157.59;6400237;22;46170;-73
2024/02/23 01:14:55;;;;;;;;;0.00;0.00;;;;;22.27;41.98;99162.31;6399982;22;45206;-73
2024/02/23 01:17:21;;;;;;;;;0.00;0.00;;;;;22.29;42.23;99162.88;6399871;22;59129;-73
2024/02/23 01:19:46;;;;;;;;;0.00;0.00;;;;;22.28;42.01;99167.38;6400318;22;45292;-73
2024/02/23 01:22:11;;;;;;;;;0.00;0.00;;;;;22.02;42.37;99123.47;6399818;22;55045;-73
2024/02/23 01:24:37;;;;;;;;;1.00;0.00;;;;;22.29;42.47;99169.00;6399740;22;45311;-74
2024/02/23 01:27:02;;;;;;;;;0.00;0.00;;;;;22.29;42.26;99170.81;6399632;22;45200;-73
2024/02/23 01:29:27;;;;;;;;;1.67;0.00;;;;;22.28;41.92;99175.31;6400401;22;45446;-72
2024/02/23 01:31:54;;;;;;;;;0.00;0.00;;;;;22.21;42.39;99161.34;6400095;22;45974;-73
2024/02/23 01:34:20;;;;;;;;;0.00;0.00;;;;;22.29;42.45;99157.59;6400241;22;45193;-73
2024/02/23 01:36:45;;;;;;;;;0.00;0.00;;;;;22.29;42.34;99154.94;6400235;22;45185;-73
2024/02/23 01:39:11;;;;;;;;;0.33;0.00;;;;;22.28;42.21;99137.41;6400148;22;45407;-73
2024/02/23 01:41:36;;;;;;;;;0.00;0.00;;;;;22.29;42.16;99144.34;6400049;22;46037;-73
2024/02/23 01:44:01;;;;;;;;;1.33;0.00;;;;;22.28;42.23;99148.81;6400124;22;45341;-73
2024/02/23 01:46:27;;;;;;;;;0.00;0.00;;;;;22.28;41.93;99148.00;6400572;22;45409;-73
2024/02/23 01:48:53;;;;;;;;;1.33;0.00;;;;;22.22;41.88;99127.72;6400231;22;45307;-73
2024/02/23 01:51:19;;;;;;;;;0.00;0.00;;;;;22.20;42.32;99121.84;6399907;22;46112;-73
2024/02/23 01:53:45;;;;;;;;;0.00;0.00;;;;;22.19;42.06;99128.97;6400161;22;45376;-73
2024/02/23 01:56:13;;;;;;;;;0.00;0.00;;;;;22.17;41.79;99121.22;6400046;22;45362;-73
2024/02/23 01:58:40;;;;;;;;;0.00;0.00;;;;;22.25;42.03;99124.63;6400611;22;45360;-73
2024/02/23 02:01:05;;;;;;;;;0.67;0.00;;;;;22.15;42.02;99110.06;6400050;22;47089;-73
2024/02/23 02:03:32;;;;;;;;;0.33;0.00;;;;;22.10;41.46;99093.22;6399387;22;53709;-73
2024/02/23 02:06:01;;;;;;;;;0.00;0.00;;;;;22.21;41.82;99110.19;6400196;22;45239;-73
2024/02/23 02:08:26;;;;;;;;;0.00;0.00;;;;;22.28;41.87;99110.91;6399431;22;45356;-73
2024/02/23 02:10:52;;;;;;;;;0.00;0.00;;;;;22.16;41.67;99101.09;6400062;22;46154;-74
2024/02/23 02:13:17;;;;;;;;;0.67;0.00;;;;;22.17;41.88;99100.03;6400579;22;45257;-73
2024/02/23 02:15:43;;;;;;;;;0.00;0.00;;;;;22.24;41.79;99107.91;6400169;22;45398;-73
2024/02/23 02:18:09;;;;;;;;;0.67;0.00;;;;;22.26;41.82;99107.69;6400158;22;45331;-73
2024/02/23 02:20:36;;;;;;;;;0.00;0.00;;;;;22.16;41.74;99087.03;6400276;22;45258;-73
2024/02/23 02:23:02;;;;;;;;;0.67;0.67;;;;;22.24;41.62;99096.50;6399251;22;45224;-73
2024/02/23 02:25:28;;;;;;;;;2.00;0.00;;;;;22.23;41.62;99103.66;6400443;22;45276;-73
2024/02/23 02:27:53;;;;;;;;;0.00;0.00;;;;;22.25;41.55;99106.88;6400392;22;45344;-73
2024/02/23 02:30:19;;;;;;;;;2.00;0.67;;;;;22.24;41.37;99097.31;6399544;22;46844;-73
2024/02/23 02:32:45;;;;;;;;;0.00;0.00;;;;;22.24;42.01;99094.69;6400426;22;45378;-73
2024/02/23 02:35:11;;;;;;;;;0.00;0.00;;;;;22.24;41.96;99089.38;6400177;22;45330;-73
2024/02/23 02:37:37;;;;;;;;;1.67;0.67;;;;;22.24;41.33;99092.03;6399360;22;45240;-73
2024/02/23 02:40:03;;;;;;;;;0.00;0.00;;;;;22.25;41.71;99092.84;6399655;22;46089;-73
2024/02/23 02:42:28;;;;;;;;;0.00;0.00;;;;;22.24;41.99;99085.91;6399782;22;45299;-73
2024/02/23 02:44:54;;;;;;;;;0.00;0.00;;;;;22.13;41.52;99064.44;6400265;22;45292;-73
2024/02/23 02:47:19;;;;;;;;;0.00;0.00;;;;;22.16;41.69;99071.97;6400492;22;45409;-73
2024/02/23 02:49:44;;;;;;;;;0.33;0.33;;;;;22.23;41.58;99068.41;6399896;22;48391;-73
2024/02/23 02:52:10;;;;;;;;;0.33;0.00;;;;;22.21;41.82;99050.09;6399859;22;45252;-73
2024/02/23 02:54:35;;;;;;;;;0.00;0.00;;;;;22.21;42.00;99052.75;6399710;22;45164;-73
2024/02/23 02:57:00;;;;;;;;;0.00;0.00;;;;;22.20;41.57;99051.09;6399724;22;54952;-73
2024/02/23 02:59:26;;;;;;;;;0.00;0.00;;;;;22.21;42.07;99059.88;6400083;22;46219;-74
2024/02/23 03:01:51;;;;;;;;;0.67;0.67;;;;;22.20;41.64;99064.34;6400052;22;45257;-73
2024/02/23 03:04:17;;;;;;;;;1.00;0.00;;;;;22.20;42.08;99063.56;6399796;22;51517;-73
2024/02/23 03:06:42;;;;;;;;;0.00;0.00;;;;;22.20;41.80;99063.56;6399939;22;45352;-73
2024/02/23 03:09:07;;;;;;;;;0.00;0.00;;;;;22.21;41.67;99054.56;6399417;22;45280;-73
2024/02/23 03:11:33;;;;;;;;;0.00;0.00;;;;;22.20;41.48;99052.97;6370761;22;53536;-73
2024/02/23 03:13:58;;;;;;;;;0.00;0.00;;;;;22.14;41.42;99041.44;6400138;22;45306;-73
2024/02/23 03:16:25;;;;;;;;;3.00;0.00;;;;;22.18;41.71;99051.34;6400102;22;45400;-73
2024/02/23 03:18:51;;;;;;;;;0.00;0.00;;;;;22.19;41.72;99044.22;6399431;22;46208;-73
2024/02/23 03:21:17;;;;;;;;;0.00;0.00;;;;;22.19;41.90;99046.84;6398679;22;45271;-73
2024/02/23 03:23:42;;;;;;;;;0.00;0.00;;;;;22.20;41.40;99045.03;6400077;22;45275;-73
2024/02/23 03:26:08;;;;;;;;;0.00;0.00;;;;;22.16;41.08;99028.75;6398814;22;55285;-73
2024/02/23 03:28:33;;;;;;;;;0.00;0.00;;;;;22.21;41.22;99034.19;6399106;22;46826;-73
2024/02/23 03:31:00;;;;;;;;;0.00;0.00;;;;;22.22;41.27;99019.13;6399688;22;45288;-73
2024/02/23 03:33:25;;;;;;;;;0.00;0.00;;;;;22.21;41.14;99017.47;6399144;22;47827;-73
2024/02/23 03:35:50;;;;;;;;;0.00;0.00;;;;;22.20;41.21;99019.31;6399158;22;45428;-73
2024/02/23 03:38:16;;;;;;;;;0.00;0.00;;;;;22.20;41.36;99011.38;6399462;22;50160;-73
2024/02/23 03:40:42;;;;;;;;;0.00;0.00;;;;;22.20;41.30;99011.38;6399297;22;45190;-73
2024/02/23 03:43:07;;;;;;;;;0.00;0.00;;;;;22.12;41.40;99004.56;6399797;22;45253;-73
2024/02/23 03:45:32;;;;;;;;;0.67;0.00;;;;;22.21;41.88;99014.84;6399692;22;45252;-73
2024/02/23 03:47:59;;;;;;;;;3.00;0.00;;;;;22.19;41.32;99012.44;6398883;22;46967;-73
2024/02/23 03:50:24;;;;;;;;;0.00;0.00;;;;;22.19;41.51;99015.06;6400257;22;45255;-73
2024/02/23 03:52:50;;;;;;;;;0.67;0.00;;;;;22.17;41.39;99012.63;6400967;22;45552;-73
2024/02/23 03:55:15;;;;;;;;;0.00;0.00;;;;;22.17;41.82;99019.78;6401205;22;45299;-73
2024/02/23 03:57:40;;;;;;;;;0.00;0.00;;;;;22.02;41.61;99002.47;6400682;22;46435;-73
2024/02/23 04:00:07;;;;;;;;;0.00;0.00;;;;;22.16;41.43;99013.69;6400797;22;47165;-73
2024/02/23 04:02:33;;;;;;;;;0.00;0.00;;;;;22.17;41.30;99017.94;6400749;22;45358;-73
2024/02/23 04:04:58;;;;;;;;;0.00;0.00;;;;;22.16;41.67;99015.53;6400046;22;45335;-73
2024/02/23 04:07:23;;;;;;;;;0.00;0.00;;;;;22.16;41.35;99020.81;6401021;22;45422;-73
2024/02/23 04:09:54;;;;;;;;;0.67;0.00;;;;;21.87;41.70;98967.59;6400735;22;45271;-73
2024/02/23 04:12:20;;;;;;;;;1.33;0.00;;;;;22.13;41.67;99005.38;6400682;22;45290;-73
2024/02/23 04:14:46;;;;;;;;;0.00;0.00;;;;;22.15;41.67;99009.41;6401416;22;45217;-73
2024/02/23 04:17:12;;;;;;;;;0.00;0.00;;;;;22.07;41.69;98991.19;6400925;22;45250;-73
2024/02/23 04:19:37;;;;;;;;;0.00;0.00;;;;;22.16;41.67;99000.44;6400584;22;45427;-73
2024/02/23 04:22:03;;;;;;;;;0.00;0.00;;;;;22.16;41.40;98989.03;6401089;22;45251;-73
2024/02/23 04:24:28;;;;;;;;;1.33;0.00;;;;;22.04;41.32;98971.25;6400392;22;45351;-73
2024/02/23 04:26:53;;;;;;;;;0.00;0.00;;;;;22.16;41.06;99002.28;6400929;22;45968;-73
2024/02/23 04:29:18;;;;;;;;;0.33;0.00;;;;;22.06;41.04;98987.75;6400625;22;48737;-73
2024/02/23 04:31:44;;;;;;;;;0.00;0.00;;;;;22.05;41.65;98983.47;6372154;22;45307;-73
2024/02/23 04:34:09;;;;;;;;;0.33;0.00;;;;;22.13;41.14;98990.28;6400626;22;45399;-73
2024/02/23 04:36:34;;;;;;;;;0.00;0.00;;;;;22.15;41.54;98988.22;6400138;22;47272;-73
2024/02/23 04:39:00;;;;;;;;;0.67;0.00;;;;;22.16;41.42;98991.69;6400304;22;56630;-73
2024/02/23 04:41:25;;;;;;;;;0.67;0.00;;;;;22.14;41.57;98999.06;6400783;22;51233;-73
2024/02/23 04:43:50;;;;;;;;;0.00;0.00;;;;;22.15;41.66;99009.41;6400170;22;48339;-73
2024/02/23 04:46:16;;;;;;;;;0.00;0.00;;;;;22.15;41.41;99008.59;6400235;22;46836;-73
2024/02/23 04:48:41;;;;;;;;;0.00;0.00;;;;;22.15;41.32;99004.13;6400285;22;45282;-73
2024/02/23 04:51:09;;;;;;;;;0.00;0.00;;;;;22.16;41.52;99010.22;6400435;22;45366;-73
2024/02/23 04:53:37;;;;;;;;;0.00;0.00;;;;;22.16;40.94;99007.56;6400490;22;45547;-73
2024/02/23 04:56:03;;;;;;;;;0.00;0.00;;;;;22.15;41.38;99004.13;6400029;22;47272;-73
2024/02/23 04:58:28;;;;;;;;;0.00;0.00;;;;;22.14;41.13;98997.22;6400242;22;45271;-73
2024/02/23 05:00:53;;;;;;;;;0.00;0.00;;;;;22.14;41.18;98986.63;6400878;22;45340;-73
2024/02/23 05:03:19;;;;;;;;;0.00;0.00;;;;;22.16;41.53;98995.16;6400459;22;45370;-73
2024/02/23 05:05:44;;;;;;;;;0.67;0.00;;;;;22.15;41.21;98985.56;6400315;22;46099;-74
2024/02/23 05:08:09;;;;;;;;;0.00;0.00;;;;;22.06;41.30;98974.50;6399833;22;63446;-73
2024/02/23 05:10:35;;;;;;;;;0.00;0.00;;;;;22.14;41.61;98977.88;6400329;22;45278;-73
2024/02/23 05:13:00;;;;;;;;;0.00;0.00;;;;;22.15;41.10;98979.47;6400136;22;46871;-73
2024/02/23 05:15:25;;;;;;;;;0.00;0.00;;;;;22.15;41.25;98968.88;6400437;22;51704;-73
2024/02/23 05:17:50;;;;;;;;;0.67;0.00;;;;;22.13;41.29;98978.88;6399662;22;45257;-73
2024/02/23 05:20:16;;;;;;;;;0.00;0.00;;;;;22.15;41.51;98987.41;6399686;22;58912;-73
2024/02/23 05:22:41;;;;;;;;;0.67;0.00;;;;;22.15;41.21;98990.06;6400200;22;56406;-73
2024/02/23 05:25:07;;;;;;;;;0.00;0.00;;;;;22.15;41.29;98992.69;6399472;22;45995;-73
2024/02/23 05:27:32;;;;;;;;;0.00;0.00;;;;;22.16;41.50;98994.34;6400712;22;45560;-73
2024/02/23 05:29:58;;;;;;;;;0.00;0.00;;;;;22.15;41.52;98993.53;6400059;22;45118;-73
2024/02/23 05:32:23;;;;;;;;;0.00;0.00;;;;;22.16;41.02;98989.03;6399929;22;45386;-73
2024/02/23 05:34:51;;;;;;;;;0.00;0.00;;;;;22.03;41.62;98974.97;6399912;22;45949;-73
2024/02/23 05:37:17;;;;;;;;;0.00;0.00;;;;;22.11;40.71;98991.56;6400064;22;45256;-73
2024/02/23 05:39:42;;;;;;;;;0.00;0.00;;;;;22.15;41.46;98992.69;6400698;22;45268;-73
2024/02/23 05:42:07;;;;;;;;;0.00;0.00;;;;;22.07;41.78;98984.06;6400170;22;45478;-73
2024/02/23 05:44:33;;;;;;;;;0.00;0.00;;;;;22.14;41.63;99002.50;6399867;22;50789;-73
2024/02/23 05:46:58;;;;;;;;;0.00;0.00;;;;;22.09;41.22;98996.28;6400030;22;45245;-73
2024/02/23 05:49:24;;;;;;;;;0.00;0.00;;;;;22.14;41.53;98993.75;6400137;22;48336;-73
2024/02/23 05:51:49;;;;;;;;;0.00;0.00;;;;;22.13;41.24;98995.59;6400669;22;45397;-73
2024/02/23 05:54:14;;;;;;;;;0.00;0.00;;;;;22.00;41.50;98986.00;6399943;22;45673;-73
2024/02/23 05:56:40;;;;;;;;;0.00;0.00;;;;;22.14;41.16;98988.47;6400433;22;45254;-73
2024/02/23 05:59:06;;;;;;;;;0.00;0.00;;;;;22.12;41.05;98985.22;6400528;22;45231;-73
2024/02/23 06:01:31;;;;;;;;;0.00;0.00;;;;;22.15;41.55;98990.06;6399701;22;45475;-73
2024/02/23 06:03:57;;;;;;;;;0.67;0.00;;;;;22.05;41.59;98985.31;6400190;22;45308;-73
2024/02/23 06:06:22;;;;;;;;;0.00;0.00;;;;;22.11;41.46;98988.91;6372128;22;45289;-73
2024/02/23 06:08:49;;;;;;;;;2.33;0.00;;;;;22.15;41.36;98987.41;6400200;22;45386;-73
2024/02/23 06:11:14;;;;;;;;;0.00;0.00;;;;;22.15;41.13;98990.06;6399664;22;45372;-73
2024/02/23 06:13:40;;;;;;;;;0.00;0.00;;;;;22.16;40.81;98994.34;6399676;22;47171;-73
2024/02/23 06:16:10;;;;;;;;;0.00;0.00;;;;;22.16;41.00;99000.44;6399200;22;45362;-73
2024/02/23 06:18:36;;;;;;;;;0.00;0.00;;;;;22.15;41.30;98998.00;6400090;22;45331;-73
2024/02/23 06:21:02;;;;;;;;;0.00;0.00;;;;;22.15;41.29;98985.56;6400055;22;45249;-73
2024/02/23 06:23:27;;;;;;;;;0.00;0.00;;;;;22.17;41.15;98995.97;6399754;22;45899;-73
2024/02/23 06:25:52;;;;;;;;;0.00;0.00;;;;;22.12;41.27;98986.03;6400266;22;45222;-73
2024/02/23 06:28:18;;;;;;;;;0.00;0.00;;;;;22.16;41.48;98986.38;6400122;22;45154;-73
2024/02/23 06:30:43;;;;;;;;;0.67;0.00;;;;;22.15;41.33;99001.47;6399683;22;45240;-74
2024/02/23 06:33:08;;;;;;;;;0.00;0.00;;;;;22.15;41.53;98995.34;6399692;22;45316;-73
2024/02/23 06:35:34;;;;;;;;;0.00;0.00;;;;;22.12;40.89;98986.03;6399889;22;46413;-73
2024/02/23 06:37:59;;;;;;;;;0.00;0.00;;;;;22.16;40.90;98989.03;6400017;22;45262;-73
2024/02/23 06:40:25;;;;;;;;;0.00;0.00;;;;;22.15;41.48;98992.69;6400025;22;45491;-73
2024/02/23 06:42:50;;;;;;;;;0.00;0.00;;;;;22.13;41.46;98994.78;6400571;22;45992;-73
2024/02/23 06:45:16;;;;;;;;;0.00;0.00;;;;;22.05;41.22;98980.00;6400537;22;45285;-74
2024/02/23 06:47:42;;;;;;;;;0.00;0.00;;;;;22.16;41.40;99004.94;6402125;22;45231;-73
2024/02/23 06:50:08;;;;;;;;;0.00;0.00;;;;;22.14;41.41;98997.22;6404377;22;45272;-73
2024/02/23 06:52:34;;;;;;;;;0.00;0.00;;;;;22.13;41.08;98990.28;6401156;22;47157;-73
2024/02/23 06:54:59;;;;;;;;;0.00;0.00;;;;;22.13;41.48;98992.94;6399812;22;45348;-73
2024/02/23 06:57:25;;;;;;;;;0.00;0.00;;;;;22.13;41.04;98992.13;6400130;22;45174;-73
2024/02/23 06:59:51;;;;;;;;;1.67;0.00;;;;;22.13;40.98;98997.44;6399502;22;45224;-73
2024/02/23 07:02:16;;;;;;;;;1.00;0.00;;;;;22.13;41.38;99000.06;6399566;22;46911;-73
2024/02/23 07:04:42;;;;;;;;;0.00;0.00;;;;;22.13;40.99;98997.44;6399269;22;53277;-73
2024/02/23 07:07:08;;;;;;;;;0.00;0.00;;;;;22.06;40.99;98987.75;6400363;22;45298;-74
2024/02/23 07:09:34;;;;;;;;;0.33;0.00;;;;;22.14;41.37;99004.34;6399206;22;45406;-73
2024/02/23 07:11:59;;;;;;;;;0.00;0.00;;;;;22.14;41.38;98996.41;6399352;22;46195;-74
2024/02/23 07:14:25;;;;;;;;;0.00;0.00;;;;;22.01;40.72;98974.38;6399228;22;45300;-73
2024/02/23 07:16:52;;;;;;;;;0.00;0.00;;;;;22.13;41.21;98987.66;6399675;22;45281;-73
2024/02/23 07:19:17;;;;;;;;;0.00;0.00;;;;;22.14;40.93;98986.63;6399191;22;45330;-73
2024/02/23 07:21:42;;;;;;;;;0.67;0.00;;;;;22.14;41.31;98983.97;6399086;22;46662;-73
2024/02/23 07:24:08;;;;;;;;;0.00;0.00;;;;;22.07;41.42;98964.69;6400394;22;45338;-74
2024/02/23 07:26:33;;;;;;;;;0.00;0.00;;;;;22.09;41.50;98972.44;6401165;22;45274;-74
2024/02/23 07:28:58;;;;;;;;;0.33;0.00;;;;;22.12;41.23;98983.38;6400225;22;45295;-75
2024/02/23 07:31:24;;;;;;;;;0.00;0.00;;;;;22.12;41.43;98986.03;6400914;22;46506;-73
2024/02/23 07:33:50;;;;;;;;;0.67;0.00;;;;;22.13;41.37;98990.28;6345354;22;45320;-73
2024/02/23 07:36:16;;;;;;;;;0.67;0.00;;;;;22.17;41.19;98995.97;6401293;22;45230;-74
2024/02/23 07:38:43;;;;;;;;;0.00;0.00;;;;;22.07;41.43;98978.75;6400429;22;45521;-74
2024/02/23 07:41:09;;;;;;;;;0.00;0.00;;;;;22.04;41.53;98962.53;6399519;22;46259;-76
2024/02/23 07:43:34;;;;;;;;;1.00;0.00;;;;;22.23;41.80;98994.22;6400385;22;45267;-75
2024/02/23 07:45:59;;;;;;;;;1.00;0.00;;;;;22.17;42.00;98994.09;6399405;22;58930;-75
2024/02/23 07:48:25;;;;;;;;;0.00;0.00;;;;;22.26;41.60;98999.88;6399966;22;45561;-74
2024/02/23 07:50:50;;;;;;;;;0.00;0.00;;;;;22.28;42.37;99007.59;6399580;22;46245;-73
2024/02/23 07:53:15;;;;;;;;;0.00;0.00;;;;;22.29;42.23;99003.91;6399498;22;60810;-74
2024/02/23 07:55:41;;;;;;;;;0.00;0.00;;;;;22.22;42.37;98989.97;6396349;22;49505;-74
2024/02/23 07:58:06;;;;;;;;;0.00;0.00;;;;;22.34;42.40;99008.53;6399082;22;45174;-73
2024/02/23 08:00:32;;;;;;;;;3.00;0.00;;;;;22.21;41.94;98991.00;6399111;22;50299;-74
2024/02/23 08:02:58;;;;;;;;;0.00;0.00;;;;;22.36;41.77;99019.72;6399923;22;45262;-74
2024/02/23 08:05:24;;;;;;;;;0.33;0.00;;;;;22.36;41.64;99020.53;6400281;22;45279;-74
2024/02/23 08:07:49;;;;;;;;;0.33;0.33;;;;;22.36;41.66;99014.41;6400566;22;45229;-75
2024/02/23 08:10:15;;;;;;;;;1.00;0.00;;;;;22.28;41.64;99012.91;6399701;22;45366;-74
2024/02/23 08:12:40;;;;;;;;;0.00;0.00;;;;;22.32;41.71;99022.03;6399325;22;45235;-75
2024/02/23 08:15:06;;;;;;;;;1.00;0.00;;;;;22.28;42.10;99010.25;6400282;22;45281;-74
2024/02/23 08:17:32;;;;;;;;;0.00;0.00;;;;;22.37;41.46;99030.09;6400528;22;45262;-74
2024/02/23 08:19:57;;;;;;;;;2.33;0.00;;;;;22.38;41.83;99026.41;6400349;22;45951;-74
2024/02/23 08:22:23;;;;;;;;;0.00;0.00;;;;;22.31;41.52;99015.09;6399822;22;57330;-75
2024/02/23 08:24:48;;;;;;;;;0.00;0.00;;;;;22.37;41.27;99024.81;6400418;22;45228;-75
2024/02/23 08:27:14;;;;;;;;;1.00;0.00;;;;;22.25;41.76;99006.22;6400057;22;45291;-75
2024/02/23 08:29:39;;;;;;;;;0.00;0.00;;;;;22.39;41.46;99038.63;6400466;22;45305;-75
2024/02/23 08:32:05;;;;;;;;;1.00;0.00;;;;;22.22;41.71;99006.69;6400711;22;45294;-75
2024/02/23 08:34:31;;;;;;;;;0.00;0.00;;;;;22.31;41.66;99022.22;6400161;22;45362;-75
2024/02/23 08:36:56;;;;;;;;;1.00;0.00;;;;;22.30;41.69;99026.75;6400188;22;49337;-75
2024/02/23 08:39:22;;;;;;;;;0.00;0.00;;;;;22.24;41.70;99014.41;6400730;22;45374;-75
2024/02/23 08:41:47;;;;;;;;;0.00;0.00;;;;;22.27;41.39;99033.31;6399408;22;45289;-75
2024/02/23 08:44:12;;;;;;;;;0.00;0.00;;;;;22.29;41.49;99033.06;6400847;22;45578;-75
2024/02/23 08:46:39;;;;;;;;;0.00;0.00;;;;;22.20;41.82;99023.84;6400849;22;45288;-75
2024/02/23 08:49:04;;;;;;;;;0.00;0.00;;;;;22.34;41.63;99050.94;6400278;22;46070;-75
2024/02/23 08:51:30;;;;;;;;;0.00;0.00;;;;;22.32;41.80;99048.50;6400667;22;45307;-75
2024/02/23 08:53:57;;;;;;;;;0.00;0.00;;;;;22.20;41.56;99037.88;6400737;22;45207;-75
2024/02/23 08:56:22;;;;;;;;;0.00;0.00;;;;;22.30;41.74;99058.53;6399516;22;45251;-75
2024/02/23 08:58:47;;;;;;;;;0.00;0.00;;;;;22.30;41.35;99063.84;6400278;22;46465;-74
2024/02/23 09:01:13;;;;;;;;;0.00;0.00;;;;;22.27;41.58;99065.09;6399465;22;63114;-76
2024/02/23 09:03:38;;;;;;;;;0.00;0.00;;;;;22.24;41.12;99056.78;6371789;22;45294;-75
2024/02/23 09:06:04;;;;;;;;;0.67;0.00;;;;;22.29;41.19;99065.66;6371455;22;47852;-75
2024/02/23 09:08:29;;;;;;;;;0.00;0.00;;;;;22.25;41.61;99063.69;6399729;22;46253;-75
2024/02/23 09:10:54;;;;;;;;;1.00;0.00;;;;;22.13;41.16;99045.91;6398757;22;61205;-75
2024/02/23 09:13:20;;;;;;;;;0.00;0.00;;;;;22.14;41.59;99054.66;6400111;22;45106;-75
2024/02/23 09:15:45;;;;;;;;;0.00;0.00;;;;;22.10;41.15;99040.25;6400269;22;45458;-75
2024/02/23 09:18:10;;;;;;;;;0.00;0.00;;;;;22.20;41.66;99058.28;6400401;22;46009;-76
2024/02/23 09:20:36;;;;;;;;;0.00;0.00;;;;;22.10;41.31;99041.06;6399798;22;45324;-75
2024/02/23 09:23:01;;;;;;;;;0.00;0.00;;;;;22.25;41.18;99051.25;6400162;22;45314;-75
2024/02/23 09:25:26;;;;;;;;;0.00;0.00;;;;;22.26;41.56;99060.81;6399643;22;45246;-75
2024/02/23 09:27:52;;;;;;;;;0.00;0.00;;;;;21.98;41.70;99019.03;6400216;22;45354;-75
2024/02/23 09:30:17;;;;;;;;;0.00;0.00;;;;;22.17;41.37;99044.41;6371553;22;45286;-75
2024/02/23 09:32:44;;;;;;;;;1.00;0.00;;;;;22.25;41.09;99050.47;6400651;22;45242;-75
2024/02/23 09:35:09;;;;;;;;;0.00;0.00;;;;;22.15;41.21;99043.03;6400021;22;45498;-75
2024/02/23 09:37:35;;;;;;;;;0.00;0.00;;;;;22.24;41.20;99054.94;6400198;22;45296;-74
2024/02/23 09:40:00;;;;;;;;;0.00;0.00;;;;;22.25;41.50;99053.09;6399962;22;45249;-75
2024/02/23 09:42:28;;;;;;;;;0.00;0.00;;;;;22.25;41.27;99055.75;6400152;22;45257;-75
2024/02/23 09:45:00;;;;;;;;;0.00;0.00;;;;;22.24;41.23;99048.81;6400500;22;45414;-75
2024/02/23 09:47:29;;;;;;;;;0.00;0.00;;;;;22.16;41.20;99031.41;6399384;22;46948;-74
2024/02/23 09:49:55;;;;;;;;;0.00;0.00;;;;;22.22;41.48;99042.94;6400219;22;45315;-75
2024/02/23 09:52:22;;;;;;;;;0.00;0.00;;;;;22.23;41.29;99055.16;6399872;22;45443;-75
2024/02/23 09:54:48;;;;;;;;;0.00;0.00;;;;;22.22;41.52;99045.59;6399916;22;45414;-75
2024/02/23 09:57:15;;;;;;;;;0.00;0.00;;;;;22.23;41.57;99052.50;6399493;22;46253;-74
2024/02/23 09:59:41;;;;;;;;;0.00;0.00;;;;;21.84;41.28;98982.91;6399654;22;45219;-75
2024/02/23 10:02:12;;;;;;;;;0.00;0.00;;;;;22.23;41.35;99055.97;6399888;22;45272;-75
2024/02/23 10:04:39;;;;;;;;;0.00;0.00;;;;;22.25;41.04;99053.09;6399529;22;45563;-75
2024/02/23 10:07:05;;;;;;;;;0.00;0.00;;;;;22.26;40.92;99057.34;6399543;22;45976;-75
2024/02/23 10:09:30;;;;;;;;;0.67;0.00;;;;;22.21;41.29;99052.75;6366025;22;45339;-74
2024/02/23 10:11:56;;;;;;;;;0.00;0.00;;;;;22.18;41.14;99040.75;6367836;22;45225;-75
2024/02/23 10:14:22;;;;;;;;;0.00;0.00;;;;;22.27;41.37;99061.63;6367965;22;45289;-75
2024/02/23 10:16:52;;;;;;;;;0.00;0.00;;;;;22.28;41.04;99052.63;6367491;22;46134;-75
2024/02/23 10:19:18;;;;;;;;;0.00;0.00;;;;;22.15;41.20;99019.19;6368179;22;45287;-75
2024/02/23 10:21:45;;;;;;;;;0.00;0.00;;;;;22.27;41.30;99045.72;6367446;22;45277;-74
2024/02/23 10:24:10;;;;;;;;;0.00;0.00;;;;;22.32;40.89;99053.00;6367970;22;45243;-75
2024/02/23 10:26:36;;;;;;;;;0.00;0.00;;;;;22.33;41.22;99052.75;6367448;22;46752;-74
2024/02/23 10:29:01;;;;;;;;;0.67;0.00;;;;;22.22;41.11;99038.47;6367642;22;45260;-75
2024/02/23 10:31:27;;;;;;;;;0.00;0.00;;;;;22.30;41.38;99045.28;6368265;22;45290;-73
2024/02/23 10:33:56;;;;;;;;;0.00;0.00;;;;;22.40;40.75;99050.81;6367591;22;45433;-75
2024/02/23 10:36:24;;;;;;;;;2.00;0.00;;;;;22.46;40.78;99053.59;6366942;22;46425;-73
2024/02/23 10:38:54;;;;;;;;;0.00;0.00;;;;;22.47;41.08;99055.22;6365920;22;45365;-74
2024/02/23 10:41:21;;;;;;;;;0.67;0.00;;;;;22.36;40.89;99038.25;6367959;22;45235;-74
2024/02/23 10:43:48;;;;;;;;;0.00;0.00;;;;;22.45;40.92;99055.47;6367619;22;45315;-74
2024/02/23 10:46:14;;;;;;;;;0.00;0.00;;;;;22.42;40.95;99050.59;6367255;22;46278;-73
2024/02/23 10:48:44;;;;;;;;;0.00;0.00;;;;;22.47;40.59;99057.88;6367342;22;45268;-74
2024/02/23 10:51:12;;;;;;;;;0.00;0.00;;;;;22.46;41.20;99070.31;6367390;22;45355;-73
2024/02/23 10:53:39;;;;;;;;;0.00;0.00;;;;;22.21;41.02;99044.78;6367689;22;45338;-74
2024/02/23 10:56:06;;;;;;;;;0.00;0.00;;;;;22.33;40.89;99051.97;6367179;22;47060;-74
2024/02/23 10:58:31;;;;;;;;;1.00;0.00;;;;;22.45;40.45;99068.72;6365407;22;45688;-74
2024/02/23 11:01:03;;;;;;;;;0.00;0.00;;;;;22.46;40.54;99070.31;6367228;22;45262;-74
2024/02/23 11:03:33;;;;;;;;;0.00;0.00;;;;;22.37;40.83;99059.25;6367378;22;45438;-74
2024/02/23 11:05:59;;;;;;;;;0.00;0.00;;;;;22.47;40.97;99063.19;6366950;22;46043;-74
2024/02/23 11:08:28;;;;;;;;;0.00;0.00;;;;;22.46;40.70;99065.00;6367046;22;45290;-75
2024/02/23 11:10:53;;;;;;;;;1.67;0.00;;;;;22.36;41.08;99047.00;6395765;22;45371;-73
2024/02/23 11:13:30;;;;;;;;;0.00;0.00;;;;;22.37;40.24;99050.47;6399354;22;45218;-75
2024/02/23 11:16:02;;;;;;;;;1.00;0.00;;;;;22.48;40.27;99062.16;6398903;22;46107;-74
2024/02/23 11:18:29;;;;;;;;;1.00;1.00;;;;;22.47;40.26;99064.00;6399145;22;45275;-74
2024/02/23 11:20:58;;;;;;;;;0.00;0.00;;;;;22.48;40.67;99064.81;6370561;22;45308;-76
2024/02/23 11:23:25;;;;;;;;;0.00;0.00;;;;;22.38;40.49;99054.72;6399744;22;45287;-74
2024/02/23 11:26:23;;;;;;;;;0.00;0.00;;;;;22.47;40.60;99053.38;6398723;22;46141;-74
2024/02/23 11:28:50;;;;;;;;;0.00;0.00;;;;;22.50;39.95;99062.72;6373517;22;45250;-74